LTCM Airport Information

Runway Information
Airport Frequencies
Airport Navaids
Type VOR-DME Name Sinop Frequency 114000 KHZ
Type NDB Name Sinop Frequency 465 KHZ
Airport Weather Information & NOTAM
ADDS - METARS form results

(0425 UTC 18 July 2018)
 
METAR text: LTCM 180350Z 24006KT CAVOK 20/15 Q1003
Conditions at: LTCM (SINOP AIRPORT , TR) observed 0350 UTC 18 July 2018
Temperature: 20.0°C (68°F)
Dewpoint: 15.0°C (59°F) [RH = 73%]
Pressure (altimeter): 29.62 inches Hg (1003.0 mb)
Winds: from the WSW (240 degrees) at 7 MPH (6 knots; 3.1 m/s)
Visibility: 6 or more miles (10+ km)
Ceiling: ceiling and visibility are OK
Clouds: unknown
Weather: no significant weather observed at this time